Weather at Entesekera Airport

Public forecast

Using degrees Celsius for public forecast. Weather courtesy of forecast.io.

Closest aviation weather report (METAR) to Entesekera Airport

Closest report is Nairobi Wilson Airport, 64.9 nm (120.1 km) ENE.

2024/06/17 04:00 (retrieved 32 minutes ago)

HKNW 170400Z 00000KT 9999 BKN020 14/13 Q1024

Closest aviation forecast (TAF) to Entesekera Airport

Forecast is more than 12 hours old.

Closest forecast is Bukoba Airport, 244.8 nm (453.4 km) W.

2024/06/16 06:27 (retrieved 22 hours ago)

TAF TAF HTBU 160500Z 1606/1706 15010KT 9999 FEW016